Time;durP1;ratioP1;P1;durP2;ratioP2;P2;SDS_P1;SDS_P2;PMS_P1;PMS_P2;Temp;Humidity;BMP_temperature;BMP_pressure;BME280_temperature;BME280_humidity;BME280_pressure;Samples;Min_cycle;Max_cycle;Signal;HPM_P1;HPM_P2
2022/07/04 00:01:29;;;;;;;2.42;2.22;;;;;;;;;;5056436;28;20651;-50
2022/07/04 00:03:56;;;;;;;2.17;2.00;;;;;;;;;;5056364;28;20243;-51
2022/07/04 00:06:22;;;;;;;2.45;2.28;;;;;;;;;;5073161;28;20231;-51
2022/07/04 00:08:50;;;;;;;2.55;2.35;;;;;;;;;;5077580;28;20231;-51
2022/07/04 00:11:16;;;;;;;2.22;2.13;;;;;;;;;;5077196;28;20241;-52
2022/07/04 00:13:42;;;;;;;2.22;2.13;;;;;;;;;;5077711;28;20241;-51
2022/07/04 00:16:09;;;;;;;2.33;2.22;;;;;;;;;;5080125;28;20317;-51
2022/07/04 00:18:35;;;;;;;8.05;2.05;;;;;;;;;;5064457;28;20230;-51
2022/07/04 00:21:01;;;;;;;2.25;2.13;;;;;;;;;;5057703;28;20239;-51
2022/07/04 00:23:28;;;;;;;2.30;2.20;;;;;;;;;;5063903;28;20878;-52
2022/07/04 00:25:55;;;;;;;2.85;2.63;;;;;;;;;;5063003;28;20223;-52
2022/07/04 00:28:22;;;;;;;3.80;2.67;;;;;;;;;;5050229;28;20240;-51
2022/07/04 00:30:48;;;;;;;4.45;3.17;;;;;;;;;;5061359;28;20238;-52
2022/07/04 00:33:15;;;;;;;4.93;3.05;;;;;;;;;;5062770;28;20231;-51
2022/07/04 00:35:42;;;;;;;2.63;2.42;;;;;;;;;;5059048;28;20232;-51
2022/07/04 00:38:08;;;;;;;3.50;3.08;;;;;;;;;;5065923;28;20235;-52
2022/07/04 00:40:35;;;;;;;4.65;2.55;;;;;;;;;;5081485;28;20252;-51
2022/07/04 00:43:03;;;;;;;3.17;2.85;;;;;;;;;;5055941;28;20259;-51
2022/07/04 00:45:30;;;;;;;3.47;2.42;;;;;;;;;;5065203;28;20246;-51
2022/07/04 00:47:56;;;;;;;4.07;3.13;;;;;;;;;;5056546;28;20248;-51
2022/07/04 00:50:25;;;;;;;3.53;3.00;;;;;;;;;;5048866;28;20733;-52
2022/07/04 00:52:52;;;;;;;2.97;2.72;;;;;;;;;;5062755;28;20701;-52
2022/07/04 00:55:19;;;;;;;3.53;2.70;;;;;;;;;;5070743;28;20235;-51
2022/07/04 00:57:45;;;;;;;5.38;3.40;;;;;;;;;;5066231;28;20232;-52
2022/07/04 01:00:13;;;;;;;3.38;2.60;;;;;;;;;;5055745;28;20597;-51
2022/07/04 01:02:40;;;;;;;2.67;2.38;;;;;;;;;;5057143;28;20231;-52
2022/07/04 01:05:06;;;;;;;3.63;2.30;;;;;;;;;;5063799;28;20232;-52
2022/07/04 01:07:33;;;;;;;3.42;2.53;;;;;;;;;;5056853;28;20235;-51
2022/07/04 01:09:59;;;;;;;3.08;2.78;;;;;;;;;;5061113;28;20602;-51
2022/07/04 01:12:27;;;;;;;3.35;2.50;;;;;;;;;;5074491;28;20703;-52
2022/07/04 01:14:53;;;;;;;7.93;2.90;;;;;;;;;;5065445;28;20231;-51
2022/07/04 01:17:21;;;;;;;2.28;2.08;;;;;;;;;;5072544;28;20235;-51
2022/07/04 01:19:47;;;;;;;2.75;2.65;;;;;;;;;;5063209;28;20235;-51
2022/07/04 01:22:16;;;;;;;2.67;2.47;;;;;;;;;;5073021;28;20234;-52
2022/07/04 01:24:42;;;;;;;2.45;2.28;;;;;;;;;;5063586;27;20242;-51
2022/07/04 01:27:08;;;;;;;2.50;2.33;;;;;;;;;;5063507;28;20241;-51
2022/07/04 01:29:34;;;;;;;2.67;2.47;;;;;;;;;;5067004;28;20227;-52
2022/07/04 01:32:04;;;;;;;3.17;2.60;;;;;;;;;;5054415;28;20240;-51
2022/07/04 01:34:30;;;;;;;4.22;2.60;;;;;;;;;;5065029;28;20254;-53
2022/07/04 01:36:56;;;;;;;2.55;2.17;;;;;;;;;;5063305;28;20246;-52
2022/07/04 01:39:24;;;;;;;5.28;2.95;;;;;;;;;;5076069;27;20246;-51
2022/07/04 01:41:50;;;;;;;3.85;2.83;;;;;;;;;;5081778;28;20752;-52
2022/07/04 01:44:17;;;;;;;4.13;3.58;;;;;;;;;;5074854;28;20246;-51
2022/07/04 01:46:43;;;;;;;5.22;4.07;;;;;;;;;;5065278;28;20773;-51
2022/07/04 01:49:09;;;;;;;3.60;3.35;;;;;;;;;;5055970;28;20241;-51
2022/07/04 01:51:36;;;;;;;4.93;3.63;;;;;;;;;;5064059;28;20242;-51
2022/07/04 01:54:02;;;;;;;3.90;3.60;;;;;;;;;;5058220;28;20238;-51
2022/07/04 01:56:30;;;;;;;3.75;3.42;;;;;;;;;;5057389;28;20240;-51
2022/07/04 01:58:58;;;;;;;3.95;3.47;;;;;;;;;;5076054;28;20231;-52
2022/07/04 02:01:29;;;;;;;4.97;3.60;;;;;;;;;;5064516;28;20231;-51
2022/07/04 02:03:56;;;;;;;3.42;3.13;;;;;;;;;;5060861;27;20230;-51
2022/07/04 02:06:22;;;;;;;4.47;3.70;;;;;;;;;;5054992;28;20227;-51
2022/07/04 02:13:00;;;;;;;4.05;3.78;;;;;;;;;;5069680;28;20249;-51
2022/07/04 02:14:19;;;;;;;4.20;3.78;;;;;;;;;;5056161;28;20231;-50
2022/07/04 02:16:45;;;;;;;4.97;4.50;;;;;;;;;;5062772;28;20237;-51
2022/07/04 02:19:12;;;;;;;5.00;4.43;;;;;;;;;;5065531;28;20322;-52
2022/07/04 02:21:38;;;;;;;4.63;4.20;;;;;;;;;;5063555;28;20226;-50
2022/07/04 02:24:05;;;;;;;4.95;4.43;;;;;;;;;;5063990;28;20241;-50
2022/07/04 02:26:31;;;;;;;4.60;4.20;;;;;;;;;;5070269;28;20254;-52
2022/07/04 02:28:59;;;;;;;4.47;4.18;;;;;;;;;;5064246;28;20764;-51
2022/07/04 02:31:26;;;;;;;4.40;4.10;;;;;;;;;;5065467;28;20234;-53
2022/07/04 02:33:52;;;;;;;5.82;5.15;;;;;;;;;;5078361;28;20239;-51
2022/07/04 02:36:18;;;;;;;5.40;4.85;;;;;;;;;;5065578;28;20241;-50
2022/07/04 02:38:45;;;;;;;5.10;4.70;;;;;;;;;;5062977;28;20242;-51
2022/07/04 02:41:12;;;;;;;5.32;4.82;;;;;;;;;;5059592;28;20239;-52
2022/07/04 02:43:38;;;;;;;5.18;4.78;;;;;;;;;;5057810;28;20239;-50
2022/07/04 02:46:06;;;;;;;6.05;5.55;;;;;;;;;;5078115;28;20230;-51
2022/07/04 02:48:32;;;;;;;5.20;4.80;;;;;;;;;;5068973;28;20250;-52
2022/07/04 02:50:58;;;;;;;5.85;5.43;;;;;;;;;;5070814;28;20227;-51
2022/07/04 02:53:25;;;;;;;6.38;5.90;;;;;;;;;;5066167;28;20269;-51
2022/07/04 02:55:51;;;;;;;5.43;4.97;;;;;;;;;;5061036;28;20640;-52
2022/07/04 02:58:17;;;;;;;5.95;5.43;;;;;;;;;;5061224;28;20233;-50
2022/07/04 03:00:43;;;;;;;6.22;5.43;;;;;;;;;;5056953;28;20227;-50
2022/07/04 03:03:11;;;;;;;6.57;6.00;;;;;;;;;;5061462;28;20258;-52
2022/07/04 03:05:38;;;;;;;6.65;6.15;;;;;;;;;;5054905;28;20239;-53
2022/07/04 03:08:05;;;;;;;5.68;5.25;;;;;;;;;;5056413;28;20231;-52
2022/07/04 03:10:31;;;;;;;6.72;5.70;;;;;;;;;;5061429;28;20237;-51
2022/07/04 03:12:57;;;;;;;6.40;5.80;;;;;;;;;;5058183;28;20839;-51
2022/07/04 03:15:24;;;;;;;5.82;5.32;;;;;;;;;;5058136;28;20243;-51
2022/07/04 03:17:50;;;;;;;5.65;5.25;;;;;;;;;;5070259;28;20227;-52
2022/07/04 03:20:18;;;;;;;5.55;5.13;;;;;;;;;;5056654;28;20254;-53
2022/07/04 03:22:44;;;;;;;6.45;5.93;;;;;;;;;;5069146;28;20253;-51
2022/07/04 03:25:10;;;;;;;6.97;6.03;;;;;;;;;;5078171;28;20617;-52
2022/07/04 03:27:36;;;;;;;6.78;6.18;;;;;;;;;;5080407;28;20241;-51
2022/07/04 03:30:03;;;;;;;6.07;5.57;;;;;;;;;;5069316;28;20244;-52
2022/07/04 03:32:29;;;;;;;6.53;5.95;;;;;;;;;;5066081;28;20227;-51
2022/07/04 03:34:56;;;;;;;6.28;5.78;;;;;;;;;;5060493;28;20341;-51
2022/07/04 03:37:23;;;;;;;5.47;4.97;;;;;;;;;;5070502;28;20318;-52
2022/07/04 03:39:50;;;;;;;6.22;5.72;;;;;;;;;;5056868;28;20585;-51
2022/07/04 03:42:16;;;;;;;6.57;6.18;;;;;;;;;;5072309;28;20725;-51
2022/07/04 03:44:42;;;;;;;6.80;6.35;;;;;;;;;;5084938;28;20222;-51
2022/07/04 03:47:09;;;;;;;7.32;6.43;;;;;;;;;;5082307;28;20230;-51
2022/07/04 03:49:35;;;;;;;7.40;6.32;;;;;;;;;;5071908;28;21484;-51
2022/07/04 03:52:01;;;;;;;7.10;6.43;;;;;;;;;;5060411;28;20624;-51
2022/07/04 03:54:29;;;;;;;6.43;6.03;;;;;;;;;;5078547;28;20245;-53
2022/07/04 03:56:55;;;;;;;7.47;6.78;;;;;;;;;;5074644;28;20231;-51
2022/07/04 03:59:22;;;;;;;6.60;6.00;;;;;;;;;;5067212;28;20235;-51
2022/07/04 04:01:48;;;;;;;7.20;6.63;;;;;;;;;;5058737;28;20228;-52
2022/07/04 04:06:58;;;;;;;9.02;7.50;;;;;;;;;;5082875;27;20237;-51
2022/07/04 04:09:24;;;;;;;8.38;7.65;;;;;;;;;;5087730;27;20235;-51
2022/07/04 04:11:52;;;;;;;6.75;6.25;;;;;;;;;;5082079;28;20333;-55
2022/07/04 04:14:19;;;;;;;7.72;7.20;;;;;;;;;;5084348;27;20242;-51
2022/07/04 04:16:45;;;;;;;8.95;8.25;;;;;;;;;;5086483;28;20226;-50
2022/07/04 04:19:12;;;;;;;8.48;7.88;;;;;;;;;;5076528;28;20230;-51
2022/07/04 04:21:38;;;;;;;7.90;7.30;;;;;;;;;;5057791;28;20330;-52
2022/07/04 04:24:05;;;;;;;8.10;7.60;;;;;;;;;;5060191;28;20270;-52
2022/07/04 04:26:31;;;;;;;7.90;7.10;;;;;;;;;;5061192;28;20276;-52
2022/07/04 04:28:59;;;;;;;8.40;7.70;;;;;;;;;;5059206;28;20223;-52
2022/07/04 04:31:25;;;;;;;7.55;6.90;;;;;;;;;;5058835;28;20236;-56
2022/07/04 04:33:51;;;;;;;7.30;6.63;;;;;;;;;;5064916;28;20235;-52
2022/07/04 04:36:18;;;;;;;8.13;6.50;;;;;;;;;;5055586;28;20230;-52
2022/07/04 04:38:44;;;;;;;7.75;7.25;;;;;;;;;;5054549;28;20235;-52
2022/07/04 04:41:10;;;;;;;6.40;5.93;;;;;;;;;;5064930;28;20235;-51
2022/07/04 04:43:37;;;;;;;7.00;6.50;;;;;;;;;;5062815;28;20231;-51
2022/07/04 04:46:06;;;;;;;6.43;5.95;;;;;;;;;;5078527;27;20242;-59
2022/07/04 04:48:32;;;;;;;6.72;6.20;;;;;;;;;;5089844;28;20254;-52
2022/07/04 04:50:59;;;;;;;6.65;6.15;;;;;;;;;;5086269;28;20235;-53
2022/07/04 04:53:25;;;;;;;6.38;5.85;;;;;;;;;;5079100;27;20243;-54
2022/07/04 04:55:51;;;;;;;5.45;4.97;;;;;;;;;;5074608;28;20231;-53
2022/07/04 04:58:18;;;;;;;6.28;5.75;;;;;;;;;;5063094;28;20238;-52
2022/07/04 05:00:44;;;;;;;6.82;5.78;;;;;;;;;;5068631;28;20261;-52
2022/07/04 05:03:12;;;;;;;5.75;5.25;;;;;;;;;;5061782;28;20271;-51
2022/07/04 05:05:38;;;;;;;5.13;4.63;;;;;;;;;;5066252;28;20231;-53
2022/07/04 05:08:04;;;;;;;5.13;4.55;;;;;;;;;;5070247;28;20238;-51
2022/07/04 05:10:31;;;;;;;5.35;4.95;;;;;;;;;;5066202;28;20231;-50
2022/07/04 05:12:57;;;;;;;4.97;4.47;;;;;;;;;;5073686;28;20318;-53
2022/07/04 05:15:23;;;;;;;3.70;3.42;;;;;;;;;;5079308;28;20234;-52
2022/07/04 05:17:50;;;;;;;4.93;4.47;;;;;;;;;;5061226;28;20733;-52
2022/07/04 05:20:18;;;;;;;6.32;4.30;;;;;;;;;;5068811;28;20724;-53
2022/07/04 05:22:44;;;;;;;4.78;4.32;;;;;;;;;;5058081;28;20231;-51
2022/07/04 05:25:10;;;;;;;4.65;4.25;;;;;;;;;;5057497;28;20232;-51
2022/07/04 05:27:37;;;;;;;4.88;3.53;;;;;;;;;;5063409;28;20235;-50
2022/07/04 05:30:03;;;;;;;3.92;3.60;;;;;;;;;;5058199;28;20228;-51
2022/07/04 05:32:30;;;;;;;3.60;3.40;;;;;;;;;;5067116;28;20243;-51
2022/07/04 05:34:57;;;;;;;3.72;3.42;;;;;;;;;;5076607;28;20235;-50
2022/07/04 05:37:25;;;;;;;3.83;3.53;;;;;;;;;;5058496;28;20245;-50
2022/07/04 05:39:52;;;;;;;3.83;3.53;;;;;;;;;;5064670;28;20239;-53
2022/07/04 05:42:18;;;;;;;3.45;3.25;;;;;;;;;;5074270;28;20239;-51
2022/07/04 05:44:45;;;;;;;4.32;3.38;;;;;;;;;;5075310;28;20334;-52
2022/07/04 05:47:11;;;;;;;4.13;3.72;;;;;;;;;;5083593;28;20235;-51
2022/07/04 05:49:37;;;;;;;6.70;3.15;;;;;;;;;;5058307;28;20231;-51
2022/07/04 05:52:04;;;;;;;5.32;3.03;;;;;;;;;;5064816;28;20239;-50
2022/07/04 05:54:32;;;;;;;3.53;3.00;;;;;;;;;;5072610;28;20239;-51
2022/07/04 05:56:58;;;;;;;2.60;2.50;;;;;;;;;;5069929;28;20230;-51
2022/07/04 05:59:24;;;;;;;3.25;2.90;;;;;;;;;;5063797;28;20233;-51
2022/07/04 06:01:51;;;;;;;6.40;3.10;;;;;;;;;;5066879;28;20231;-51
2022/07/04 06:04:17;;;;;;;3.63;2.42;;;;;;;;;;5055142;28;20235;-51
2022/07/04 06:06:44;;;;;;;2.33;2.15;;;;;;;;;;5058935;28;20239;-51
2022/07/04 06:09:10;;;;;;;2.53;2.33;;;;;;;;;;5059938;28;20713;-51
2022/07/04 06:11:38;;;;;;;2.35;2.15;;;;;;;;;;5063312;28;20238;-52
2022/07/04 06:14:04;;;;;;;3.58;2.50;;;;;;;;;;5062392;28;20254;-51
2022/07/04 06:16:30;;;;;;;3.35;2.35;;;;;;;;;;5049167;27;20235;-51
2022/07/04 06:18:57;;;;;;;2.00;1.90;;;;;;;;;;5067835;28;20239;-51
2022/07/04 06:21:23;;;;;;;3.28;1.92;;;;;;;;;;5050023;28;20312;-51
2022/07/04 06:23:49;;;;;;;4.88;1.63;;;;;;;;;;5049275;28;20238;-50
2022/07/04 06:26:16;;;;;;;3.20;1.50;;;;;;;;;;5061461;28;20258;-51
2022/07/04 06:28:44;;;;;;;2.72;1.75;;;;;;;;;;5058677;28;20598;-52
2022/07/04 06:31:11;;;;;;;1.50;1.30;;;;;;;;;;5068376;28;20283;-53
2022/07/04 06:35:44;;;;;;;4.15;1.58;;;;;;;;;;5077581;28;20234;-52
2022/07/04 06:36:23;;;;;;;1.40;1.30;;;;;;;;;;5063474;28;20258;-52
2022/07/04 06:38:49;;;;;;;1.33;1.23;;;;;;;;;;5069479;28;20701;-52
2022/07/04 06:41:15;;;;;;;2.35;1.58;;;;;;;;;;5061311;28;20231;-51
2022/07/04 06:43:42;;;;;;;3.50;1.50;;;;;;;;;;5081094;27;20250;-51
2022/07/04 06:46:10;;;;;;;3.10;1.65;;;;;;;;;;5083016;28;20230;-51
2022/07/04 06:48:36;;;;;;;1.48;1.38;;;;;;;;;;5075773;28;22853;-51
2022/07/04 06:51:03;;;;;;;1.40;1.30;;;;;;;;;;5055967;28;20281;-51
2022/07/04 06:53:29;;;;;;;1.30;1.20;;;;;;;;;;5057212;28;20716;-52
2022/07/04 06:55:58;;;;;;;3.30;1.08;;;;;;;;;;5078733;28;20247;-51
2022/07/04 06:58:25;;;;;;;2.00;1.30;;;;;;;;;;5071916;28;20795;-52
2022/07/04 07:00:51;;;;;;;2.15;1.38;;;;;;;;;;5070588;28;20314;-51
2022/07/04 07:03:19;;;;;;;3.33;1.40;;;;;;;;;;5077607;28;20238;-51
2022/07/04 07:05:45;;;;;;;4.20;1.20;;;;;;;;;;5074990;28;20608;-52
2022/07/04 07:08:12;;;;;;;2.20;1.15;;;;;;;;;;5081026;28;20608;-51
2022/07/04 07:10:38;;;;;;;2.90;1.35;;;;;;;;;;5059340;28;20226;-51
2022/07/04 07:13:04;;;;;;;2.05;1.48;;;;;;;;;;5077085;28;21123;-52
2022/07/04 07:15:35;;;;;;;3.90;1.20;;;;;;;;;;5064260;28;20228;-52
2022/07/04 07:18:01;;;;;;;1.23;1.00;;;;;;;;;;5066611;28;20282;-51
2022/07/04 07:20:29;;;;;;;2.88;1.40;;;;;;;;;;5085422;27;20238;-51
2022/07/04 07:22:55;;;;;;;1.33;1.23;;;;;;;;;;5071643;28;20277;-50
2022/07/04 07:25:21;;;;;;;3.75;1.30;;;;;;;;;;5065889;28;20224;-51
2022/07/04 07:27:48;;;;;;;1.20;1.10;;;;;;;;;;5060773;28;20236;-51
2022/07/04 07:30:14;;;;;;;2.60;1.55;;;;;;;;;;5066637;28;20284;-51
2022/07/04 07:32:41;;;;;;;1.52;1.13;;;;;;;;;;5059969;28;20226;-51
2022/07/04 07:35:07;;;;;;;2.15;1.38;;;;;;;;;;5059685;28;20577;-52
2022/07/04 07:37:35;;;;;;;2.72;1.20;;;;;;;;;;5064067;28;21666;-51
2022/07/04 07:40:02;;;;;;;2.28;1.65;;;;;;;;;;5062505;28;20250;-52
2022/07/04 07:42:28;;;;;;;1.80;1.55;;;;;;;;;;5063213;28;20230;-53
2022/07/04 07:44:54;;;;;;;2.35;1.30;;;;;;;;;;5068753;28;20238;-51
2022/07/04 07:47:21;;;;;;;2.80;1.65;;;;;;;;;;5066386;28;20247;-52
2022/07/04 07:49:47;;;;;;;4.00;2.70;;;;;;;;;;5080943;28;20243;-53
2022/07/04 07:52:14;;;;;;;2.10;1.33;;;;;;;;;;5068793;28;20239;-51
2022/07/04 07:54:41;;;;;;;5.18;2.33;;;;;;;;;;5061283;28;20235;-51
2022/07/04 07:57:08;;;;;;;1.75;1.52;;;;;;;;;;5070649;28;20242;-52
2022/07/04 07:59:34;;;;;;;1.30;1.20;;;;;;;;;;5070054;27;20238;-52
2022/07/04 08:02:00;;;;;;;1.17;0.98;;;;;;;;;;5063154;28;20604;-51
2022/07/04 08:04:35;;;;;;;2.17;0.95;;;;;;;;;;5069384;28;20245;-53
2022/07/04 08:07:01;;;;;;;1.10;1.05;;;;;;;;;;5064425;28;20257;-52
2022/07/04 08:09:28;;;;;;;1.58;1.30;;;;;;;;;;5069207;28;20238;-50
2022/07/04 08:11:55;;;;;;;1.00;0.90;;;;;;;;;;5066203;28;20235;-52
2022/07/04 08:14:22;;;;;;;4.20;1.42;;;;;;;;;;5067954;28;20243;-51
2022/07/04 08:16:48;;;;;;;0.75;0.60;;;;;;;;;;5068323;28;20600;-51
2022/07/04 08:19:15;;;;;;;0.63;0.52;;;;;;;;;;5062099;28;20258;-51
2022/07/04 08:21:41;;;;;;;1.08;0.70;;;;;;;;;;5069434;28;20692;-49
2022/07/04 08:24:08;;;;;;;1.92;1.10;;;;;;;;;;5072141;28;20243;-51
2022/07/04 08:26:34;;;;;;;1.23;0.75;;;;;;;;;;5064796;28;20835;-51
2022/07/04 08:29:02;;;;;;;1.30;1.00;;;;;;;;;;5063733;28;20228;-51
2022/07/04 08:31:28;;;;;;;1.90;0.80;;;;;;;;;;5073121;28;20325;-50
2022/07/04 08:33:55;;;;;;;2.10;0.88;;;;;;;;;;5077687;28;20241;-52
2022/07/04 08:36:21;;;;;;;1.40;1.10;;;;;;;;;;5060106;28;20227;-52
2022/07/04 08:38:47;;;;;;;1.65;1.10;;;;;;;;;;5063523;28;20732;-51
2022/07/04 08:41:16;;;;;;;4.50;1.40;;;;;;;;;;5058810;28;20238;-52
2022/07/04 08:43:42;;;;;;;2.08;0.98;;;;;;;;;;5056870;28;20247;-53
2022/07/04 08:46:10;;;;;;;3.28;1.50;;;;;;;;;;5068218;28;20246;-51
2022/07/04 08:48:38;;;;;;;1.65;1.00;;;;;;;;;;5083849;28;20229;-50
2022/07/04 08:51:09;;;;;;;1.48;1.08;;;;;;;;;;5073309;28;20632;-51
2022/07/04 08:53:37;;;;;;;1.13;1.00;;;;;;;;;;5072097;28;20728;-50
2022/07/04 08:58:48;;;;;;;1.95;1.30;;;;;;;;;;5058947;28;20234;-51
2022/07/04 09:01:16;;;;;;;1.33;0.95;;;;;;;;;;5076574;28;20233;-51
2022/07/04 09:03:43;;;;;;;1.60;1.17;;;;;;;;;;5075157;28;20231;-50
2022/07/04 09:06:10;;;;;;;2.22;1.50;;;;;;;;;;5066026;28;20236;-52
2022/07/04 09:08:36;;;;;;;2.33;1.20;;;;;;;;;;5062728;28;20231;-51
2022/07/04 09:11:03;;;;;;;3.72;1.75;;;;;;;;;;5060013;28;20227;-51
2022/07/04 09:13:30;;;;;;;2.60;1.42;;;;;;;;;;5057215;28;20764;-51
2022/07/04 09:15:57;;;;;;;3.13;1.05;;;;;;;;;;5062431;28;20226;-53
2022/07/04 09:18:25;;;;;;;1.92;1.10;;;;;;;;;;5064444;28;20668;-53
2022/07/04 09:20:52;;;;;;;2.45;1.10;;;;;;;;;;5062073;28;20277;-53
2022/07/04 09:23:19;;;;;;;1.45;1.30;;;;;;;;;;5058878;28;20254;-51
2022/07/04 09:25:46;;;;;;;4.68;1.67;;;;;;;;;;5058288;28;20601;-50
2022/07/04 09:28:12;;;;;;;1.27;1.23;;;;;;;;;;5059108;28;20235;-53
2022/07/04 09:30:47;;;;;;;2.63;1.35;;;;;;;;;;5069020;28;20599;-52
2022/07/04 09:33:17;;;;;;;1.42;0.90;;;;;;;;;;5075333;28;20642;-52
2022/07/04 09:35:45;;;;;;;1.67;1.15;;;;;;;;;;5058401;28;20236;-52
2022/07/04 09:38:12;;;;;;;1.85;1.33;;;;;;;;;;5062983;28;20235;-50
2022/07/04 09:43:19;;;;;;;1.35;0.88;;;;;;;;;;5058768;28;20235;-51
2022/07/04 09:45:54;;;;;;;1.85;1.20;;;;;;;;;;5058017;28;20235;-51
2022/07/04 09:48:20;;;;;;;1.77;1.48;;;;;;;;;;5062474;28;20233;-51
2022/07/04 09:50:48;;;;;;;1.05;0.90;;;;;;;;;;5062662;28;20227;-51
2022/07/04 09:53:14;;;;;;;1.17;0.85;;;;;;;;;;5066858;28;20235;-51
2022/07/04 09:55:41;;;;;;;1.88;1.00;;;;;;;;;;5060111;28;20274;-51
2022/07/04 09:58:08;;;;;;;3.65;1.30;;;;;;;;;;5062096;28;20232;-52
2022/07/04 10:00:36;;;;;;;1.10;1.10;;;;;;;;;;5060787;28;20246;-52
2022/07/04 10:03:16;;;;;;;0.80;0.80;;;;;;;;;;5054927;28;20288;-51
2022/07/04 10:05:43;;;;;;;0.88;0.80;;;;;;;;;;5058849;28;20258;-52
2022/07/04 10:08:10;;;;;;;1.23;1.17;;;;;;;;;;5055518;28;20243;-52
2022/07/04 10:10:39;;;;;;;1.77;0.90;;;;;;;;;;5057691;28;20231;-51
2022/07/04 10:13:06;;;;;;;0.80;0.73;;;;;;;;;;5065994;28;20318;-51
2022/07/04 10:15:33;;;;;;;1.63;1.00;;;;;;;;;;5059727;28;20231;-51
2022/07/04 10:18:00;;;;;;;2.60;1.05;;;;;;;;;;5059645;28;20232;-50
2022/07/04 10:20:27;;;;;;;2.35;1.30;;;;;;;;;;5062680;28;20322;-51
2022/07/04 10:22:53;;;;;;;1.67;0.90;;;;;;;;;;5062918;28;20233;-50
2022/07/04 10:25:21;;;;;;;1.10;0.90;;;;;;;;;;5068721;28;20230;-52
2022/07/04 10:27:49;;;;;;;1.67;1.20;;;;;;;;;;5083614;28;20645;-52
2022/07/04 10:30:16;;;;;;;3.08;1.42;;;;;;;;;;5067393;27;20235;-52
2022/07/04 10:32:44;;;;;;;4.60;1.58;;;;;;;;;;5059813;28;20226;-50
2022/07/04 10:35:13;;;;;;;3.33;1.30;;;;;;;;;;5072178;28;20243;-53
2022/07/04 10:37:58;;;;;;;1.65;1.20;;;;;;;;;;5051777;28;20328;-52
2022/07/04 10:40:43;;;;;;;1.77;0.95;;;;;;;;;;5079893;28;20256;-50
2022/07/04 10:43:24;;;;;;;1.20;0.80;;;;;;;;;;5061280;27;20250;-52
2022/07/04 10:45:51;;;;;;;0.93;0.70;;;;;;;;;;5039168;28;20239;-52
2022/07/04 10:48:20;;;;;;;1.10;1.00;;;;;;;;;;5055838;28;20254;-52
2022/07/04 10:50:58;;;;;;;0.90;0.88;;;;;;;;;;5068762;28;20230;-51
2022/07/04 10:53:24;;;;;;;1.65;0.88;;;;;;;;;;5064605;28;20246;-51
2022/07/04 10:55:52;;;;;;;0.73;0.73;;;;;;;;;;5057952;28;20246;-50
2022/07/04 10:58:38;;;;;;;2.20;1.17;;;;;;;;;;5054988;28;20244;-51
2022/07/04 11:01:11;;;;;;;0.90;0.88;;;;;;;;;;5055706;28;20234;-51
2022/07/04 11:03:45;;;;;;;2.08;1.20;;;;;;;;;;5077659;28;20317;-52
2022/07/04 11:06:26;;;;;;;2.38;1.08;;;;;;;;;;5060478;28;20311;-50
2022/07/04 11:09:11;;;;;;;5.38;0.80;;;;;;;;;;5069107;28;20241;-51
2022/07/04 11:11:50;;;;;;;1.02;0.80;;;;;;;;;;5069783;28;21604;-52
2022/07/04 11:14:35;;;;;;;2.50;0.98;;;;;;;;;;5061835;28;20280;-51
2022/07/04 11:17:01;;;;;;;1.73;1.17;;;;;;;;;;5052391;28;20234;-52
2022/07/04 11:19:28;;;;;;;3.05;1.10;;;;;;;;;;5054554;28;20962;-52
2022/07/04 11:21:55;;;;;;;2.25;0.95;;;;;;;;;;5063570;28;21118;-51
2022/07/04 11:24:21;;;;;;;1.95;0.73;;;;;;;;;;5059603;28;20239;-52
2022/07/04 11:26:49;;;;;;;2.10;1.05;;;;;;;;;;5062078;28;20240;-51
2022/07/04 11:29:15;;;;;;;1.75;0.98;;;;;;;;;;5060871;28;20239;-51
2022/07/04 11:31:42;;;;;;;1.00;0.80;;;;;;;;;;5062763;28;20231;-51
2022/07/04 11:34:09;;;;;;;1.13;0.95;;;;;;;;;;5069682;28;20311;-51
2022/07/04 11:36:35;;;;;;;1.80;1.00;;;;;;;;;;5072063;28;20231;-52
2022/07/04 11:39:02;;;;;;;0.65;0.63;;;;;;;;;;5059999;28;20231;-53
2022/07/04 11:47:03;;;;;;;1.85;1.10;;;;;;;;;;5056619;28;20234;-51
2022/07/04 11:49:30;;;;;;;2.40;1.20;;;;;;;;;;5059472;28;20277;-55
2022/07/04 11:51:56;;;;;;;2.83;1.00;;;;;;;;;;5061558;28;20234;-51
2022/07/04 11:54:22;;;;;;;0.80;0.80;;;;;;;;;;5061083;28;20246;-51
2022/07/04 11:56:49;;;;;;;0.95;0.80;;;;;;;;;;5055950;28;20279;-52
2022/07/04 11:59:17;;;;;;;2.78;1.00;;;;;;;;;;5059066;27;20230;-52
2022/07/04 12:01:44;;;;;;;1.45;0.73;;;;;;;;;;5057408;28;20239;-52
2022/07/04 12:04:14;;;;;;;3.72;1.02;;;;;;;;;;5062629;28;20247;-51
2022/07/04 12:06:41;;;;;;;2.97;1.05;;;;;;;;;;5072730;28;20234;-52
2022/07/04 12:09:07;;;;;;;1.20;1.00;;;;;;;;;;5067896;28;20242;-51
2022/07/04 12:11:52;;;;;;;0.90;0.90;;;;;;;;;;5070708;28;20238;-52
2022/07/04 12:14:20;;;;;;;1.20;1.10;;;;;;;;;;5067074;28;20251;-54
2022/07/04 12:16:47;;;;;;;1.05;0.80;;;;;;;;;;5065298;28;20235;-51
2022/07/04 12:19:14;;;;;;;0.85;0.60;;;;;;;;;;5063064;28;20646;-52
2022/07/04 12:21:40;;;;;;;0.80;0.80;;;;;;;;;;5067100;28;20238;-52
2022/07/04 12:24:06;;;;;;;1.35;0.80;;;;;;;;;;5068027;28;20480;-50
2022/07/04 12:26:34;;;;;;;1.67;0.82;;;;;;;;;;5084643;28;20246;-52
2022/07/04 12:29:00;;;;;;;0.90;0.90;;;;;;;;;;5083984;28;20234;-52
2022/07/04 12:31:40;;;;;;;3.90;1.48;;;;;;;;;;5063946;28;20242;-51
2022/07/04 12:34:14;;;;;;;0.98;0.90;;;;;;;;;;5066695;28;20326;-52
2022/07/04 12:36:48;;;;;;;2.03;0.70;;;;;;;;;;5063811;28;20723;-52
2022/07/04 12:39:26;;;;;;;0.47;0.47;;;;;;;;;;5061951;28;20242;-53
2022/07/04 12:42:03;;;;;;;1.73;0.68;;;;;;;;;;5082727;28;20237;-51
2022/07/04 12:44:30;;;;;;;4.38;0.70;;;;;;;;;;5074169;27;20235;-51
2022/07/04 12:46:58;;;;;;;0.70;0.70;;;;;;;;;;5058079;28;20238;-53
2022/07/04 12:49:24;;;;;;;3.65;0.80;;;;;;;;;;5060934;28;20246;-52
2022/07/04 12:51:50;;;;;;;1.35;0.43;;;;;;;;;;5057450;28;20753;-53
2022/07/04 12:54:17;;;;;;;1.45;0.68;;;;;;;;;;5064893;28;20261;-52
2022/07/04 12:56:45;;;;;;;0.82;0.68;;;;;;;;;;5061328;28;20235;-51
2022/07/04 12:59:12;;;;;;;0.80;0.65;;;;;;;;;;5065268;28;20246;-52
2022/07/04 13:01:39;;;;;;;2.00;0.70;;;;;;;;;;5065772;28;20602;-51
2022/07/04 13:04:07;;;;;;;1.02;0.60;;;;;;;;;;5058767;28;20235;-52
2022/07/04 13:06:34;;;;;;;1.52;0.70;;;;;;;;;;5070073;28;20265;-52
2022/07/04 13:09:00;;;;;;;0.93;0.85;;;;;;;;;;5059387;28;20235;-52
2022/07/04 13:14:10;;;;;;;1.15;0.63;;;;;;;;;;5061875;28;20355;-53
2022/07/04 13:16:36;;;;;;;1.75;0.70;;;;;;;;;;5062491;28;20234;-52
2022/07/04 13:19:03;;;;;;;0.82;0.73;;;;;;;;;;5057499;28;20226;-51
2022/07/04 13:21:31;;;;;;;0.50;0.50;;;;;;;;;;5065105;28;20222;-51
2022/07/04 13:23:57;;;;;;;0.75;0.75;;;;;;;;;;5068229;28;20235;-51
2022/07/04 13:26:24;;;;;;;2.10;0.63;;;;;;;;;;5074670;28;20235;-51
2022/07/04 13:28:51;;;;;;;3.47;0.73;;;;;;;;;;5065258;27;20241;-54
2022/07/04 13:31:17;;;;;;;0.70;0.70;;;;;;;;;;5060252;28;20234;-51
2022/07/04 13:33:44;;;;;;;0.82;0.70;;;;;;;;;;5062769;28;20239;-52
2022/07/04 13:36:10;;;;;;;1.75;0.70;;;;;;;;;;5060686;28;20231;-52
2022/07/04 13:38:38;;;;;;;2.00;1.00;;;;;;;;;;5053094;28;20349;-52
2022/07/04 13:41:04;;;;;;;1.40;0.47;;;;;;;;;;5060570;28;20223;-52
2022/07/04 13:43:31;;;;;;;3.50;0.75;;;;;;;;;;5063001;28;20235;-51
2022/07/04 13:45:57;;;;;;;0.65;0.65;;;;;;;;;;5057301;28;20428;-51
2022/07/04 13:48:24;;;;;;;0.60;0.60;;;;;;;;;;5059508;28;20234;-52
2022/07/04 13:50:50;;;;;;;2.38;0.65;;;;;;;;;;5070405;28;20699;-51
2022/07/04 13:53:17;;;;;;;1.30;0.82;;;;;;;;;;5068157;27;20230;-52
2022/07/04 13:55:45;;;;;;;1.23;0.63;;;;;;;;;;5056029;28;20258;-51
2022/07/04 13:58:11;;;;;;;0.50;0.50;;;;;;;;;;5057691;28;20238;-52
2022/07/04 14:00:38;;;;;;;0.75;0.60;;;;;;;;;;5064172;28;20227;-51
2022/07/04 14:03:04;;;;;;;0.63;0.45;;;;;;;;;;5070324;28;20238;-52
2022/07/04 14:05:31;;;;;;;1.77;0.63;;;;;;;;;;5060278;28;20310;-52
2022/07/04 14:07:58;;;;;;;0.47;0.47;;;;;;;;;;5063791;28;20223;-52
2022/07/04 14:10:24;;;;;;;1.85;0.60;;;;;;;;;;5060231;27;20239;-52
2022/07/04 14:12:52;;;;;;;0.65;0.65;;;;;;;;;;5072405;28;20689;-51
2022/07/04 14:15:18;;;;;;;0.93;0.82;;;;;;;;;;5063497;28;20243;-50
2022/07/04 14:17:44;;;;;;;0.70;0.60;;;;;;;;;;5063395;28;20227;-53
2022/07/04 14:20:11;;;;;;;0.82;0.60;;;;;;;;;;5067315;28;20234;-53
2022/07/04 14:22:38;;;;;;;0.98;0.60;;;;;;;;;;5057988;28;20313;-53
2022/07/04 14:25:05;;;;;;;0.73;0.68;;;;;;;;;;5066856;28;20609;-51
2022/07/04 14:27:32;;;;;;;2.17;0.77;;;;;;;;;;5056104;28;20235;-52
2022/07/04 14:29:59;;;;;;;0.50;0.50;;;;;;;;;;5065771;28;20230;-51
2022/07/04 14:32:26;;;;;;;1.35;0.77;;;;;;;;;;5066809;28;20418;-51
2022/07/04 14:34:53;;;;;;;2.60;0.82;;;;;;;;;;5057655;28;20242;-52
2022/07/04 14:37:20;;;;;;;1.30;0.60;;;;;;;;;;5066807;28;20293;-51
2022/07/04 14:39:46;;;;;;;2.75;0.95;;;;;;;;;;5064064;28;20647;-51
2022/07/04 14:42:12;;;;;;;1.85;0.70;;;;;;;;;;5058513;28;20877;-51
2022/07/04 14:44:39;;;;;;;0.70;0.60;;;;;;;;;;5050108;28;20235;-50
2022/07/04 14:47:06;;;;;;;2.13;1.10;;;;;;;;;;5056183;28;20228;-52
2022/07/04 14:49:33;;;;;;;0.88;0.68;;;;;;;;;;5059547;28;20716;-51
2022/07/04 14:51:59;;;;;;;3.50;0.85;;;;;;;;;;5063194;28;20227;-51
2022/07/04 14:54:26;;;;;;;0.73;0.70;;;;;;;;;;5059560;28;20249;-52
2022/07/04 14:56:52;;;;;;;1.42;0.85;;;;;;;;;;5058853;28;20245;-52
2022/07/04 14:59:19;;;;;;;1.10;1.00;;;;;;;;;;5056577;28;20968;-50
2022/07/04 15:01:45;;;;;;;1.73;0.75;;;;;;;;;;5059976;28;20235;-53
2022/07/04 15:04:13;;;;;;;1.65;0.75;;;;;;;;;;5056530;28;20247;-52